Time;durP1;ratioP1;P1;durP2;ratioP2;P2;SDS_P1;SDS_P2;PMS_P1;PMS_P2;Temp;Humidity;BMP_temperature;BMP_pressure;BME280_temperature;BME280_humidity;BME280_pressure;Samples;Min_cycle;Max_cycle;Signal;HPM_P1;HPM_P2
2023/07/02 00:00:01;;;;;;;19.13;6.53;;;17.90;81.90;;;;;;5038648;28;20199;-63
2023/07/02 00:02:28;;;;;;;12.00;6.77;;;17.80;99.90;;;;;;5035998;28;20725;-63
2023/07/02 00:04:55;;;;;;;13.23;6.37;;;17.90;99.90;;;;;;5038068;28;20200;-62
2023/07/02 00:07:22;;;;;;;17.40;6.97;;;17.90;99.90;;;;;;5038740;28;20210;-62
2023/07/02 00:09:49;;;;;;;14.83;6.57;;;17.80;99.90;;;;;;5036318;28;20223;-63
2023/07/02 00:12:16;;;;;;;15.03;6.53;;;17.90;99.90;;;;;;5037735;28;20204;-63
2023/07/02 00:14:43;;;;;;;16.13;7.17;;;17.90;99.90;;;;;;5032407;28;20200;-61
2023/07/02 00:17:13;;;;;;;14.57;6.70;;;17.90;23.90;;;;;;5015490;28;20324;-62
2023/07/02 00:19:46;;;;;;;15.13;8.00;;;17.70;99.90;;;;;;5037444;28;20257;-62
2023/07/02 00:22:15;;;;;;;16.70;8.63;;;17.70;99.90;;;;;;5034127;28;20691;-61
2023/07/02 00:24:42;;;;;;;15.27;8.13;;;17.70;99.90;;;;;;5037920;28;22280;-63
2023/07/02 00:27:09;;;;;;;18.27;7.80;;;17.70;99.90;;;;;;5038638;28;20214;-62
2023/07/02 00:29:36;;;;;;;21.27;7.87;;;17.70;1.00;;;;;;5022282;28;20212;-62
2023/07/02 00:32:03;;;;;;;17.00;8.60;;;17.80;1.00;;;;;;5033929;28;20207;-63
2023/07/02 00:34:30;;;;;;;19.07;8.37;;;17.70;99.90;;;;;;5039225;28;20222;-62
2023/07/02 00:36:57;;;;;;;15.23;8.23;;;17.70;99.90;;;;;;5039687;28;20251;-61
2023/07/02 00:39:24;;;;;;;18.53;8.70;;;17.70;99.90;;;;;;5038503;28;20251;-61
2023/07/02 00:41:51;;;;;;;16.17;8.37;;;17.70;26.30;;;;;;5038546;28;20208;-61
2023/07/02 00:44:17;;;;;;;16.47;7.63;;;17.80;99.90;;;;;;5037201;28;20292;-61
2023/07/02 00:46:44;;;;;;;16.20;9.37;;;17.80;1.00;;;;;;5020741;28;20203;-60
2023/07/02 00:49:12;;;;;;;19.03;8.30;;;17.80;99.90;;;;;;5037947;28;20218;-61
2023/07/02 00:51:39;;;;;;;19.43;8.63;;;17.70;17.20;;;;;;5039669;28;20652;-61
2023/07/02 00:54:05;;;;;;;19.17;8.77;;;17.70;99.90;;;;;;5032299;28;20196;-62
2023/07/02 00:56:32;;;;;;;18.80;9.10;;;17.80;99.90;;;;;;5024539;28;20191;-60
2023/07/02 00:59:00;;;;;;;20.70;9.97;;;17.70;99.90;;;;;;5039202;28;20229;-63
2023/07/02 01:01:28;;;;;;;21.57;9.33;;;17.70;99.90;;;;;;5034924;28;20251;-67
2023/07/02 01:03:59;;;;;;;23.93;9.53;;;17.70;99.90;;;;;;5052248;22;20292;-59
2023/07/02 01:06:29;;;;;;;19.97;10.33;;;17.60;99.90;;;;;;5056996;28;20942;-60
2023/07/02 01:08:58;;;;;;;17.70;9.73;;;17.70;1.00;;;;;;5054536;28;20704;-58
2023/07/02 01:11:31;;;;;;;15.13;9.60;;;17.60;99.90;;;;;;5054111;28;20979;-58
2023/07/02 01:14:06;;;;;;;21.80;9.43;;;17.60;1.00;;;;;;5052443;28;20776;-58
2023/07/02 01:16:35;;;;;;;22.20;9.10;;;17.60;1.00;;;;;;5052155;28;20629;-58
2023/07/02 01:19:08;;;;;;;17.93;9.50;;;17.70;1.00;;;;;;5054128;28;20222;-58
2023/07/02 01:21:35;;;;;;;18.93;9.53;;;17.60;1.00;;;;;;5050887;28;20645;-58
2023/07/02 01:24:03;;;;;;;19.10;10.00;;;17.70;1.00;;;;;;5054756;28;20544;-58
2023/07/02 01:26:34;;;;;;;19.77;9.87;;;17.70;1.00;;;;;;5054322;28;20264;-58
2023/07/02 01:29:18;;;;;;;16.90;10.70;;;17.80;1.00;;;;;;5051194;28;20245;-58
2023/07/02 01:31:45;;;;;;;19.83;11.17;;;17.60;1.00;;;;;;5052426;28;20201;-58
2023/07/02 01:34:13;;;;;;;19.00;10.10;;;17.70;1.00;;;;;;5051567;28;20200;-59
2023/07/02 01:36:40;;;;;;;18.43;9.27;;;17.60;1.00;;;;;;5055559;28;20200;-58
2023/07/02 01:39:07;;;;;;;22.43;10.67;;;17.70;1.00;;;;;;5054839;28;20269;-59
2023/07/02 01:41:58;;;;;;;18.90;10.33;;;17.60;99.90;;;;;;5039539;28;20590;-58
2023/07/02 01:44:24;;;;;;;23.67;10.47;;;17.50;99.90;;;;;;5047705;28;20262;-58
2023/07/02 01:46:51;;;;;;;19.83;9.73;;;17.60;99.90;;;;;;5054075;28;20249;-58
2023/07/02 01:49:19;;;;;;;18.73;9.33;;;17.60;99.90;;;;;;5056982;28;20203;-59
2023/07/02 01:51:50;;;;;;;19.47;10.07;;;17.70;1.00;;;;;;5055651;28;20187;-58
2023/07/02 01:54:17;;;;;;;20.37;10.20;;;17.70;1.00;;;;;;5055785;28;20323;-58
2023/07/02 01:56:44;;;;;;;17.70;9.30;;;17.60;1.00;;;;;;5055088;28;20202;-59
2023/07/02 01:59:11;;;;;;;18.00;9.80;;;17.60;1.00;;;;;;5052564;28;20722;-58
2023/07/02 02:01:40;;;;;;;16.13;9.50;;;17.60;99.90;;;;;;5054396;28;20207;-58
2023/07/02 02:04:08;;;;;;;20.23;9.93;;;17.50;1.00;;;;;;5045572;28;20710;-58
2023/07/02 02:06:36;;;;;;;18.47;9.17;;;17.50;99.90;;;;;;5044254;28;20203;-58
2023/07/02 02:09:04;;;;;;;15.60;8.67;;;17.60;48.00;;;;;;5045926;28;20204;-58
2023/07/02 02:11:32;;;;;;;25.63;9.93;;;17.50;1.00;;;;;;5028108;28;20207;-59
2023/07/02 02:14:01;;;;;;;17.23;9.93;;;17.30;1.00;;;;;;5042042;28;20204;-59
2023/07/02 02:16:28;;;;;;;17.70;9.37;;;17.30;99.90;;;;;;5047207;28;20200;-58
2023/07/02 02:18:55;;;;;;;17.37;8.30;;;17.30;99.90;;;;;;5046397;28;20239;-60
2023/07/02 02:21:22;;;;;;;15.07;8.37;;;17.30;99.90;;;;;;5030260;28;20655;-59
2023/07/02 02:23:49;;;;;;;15.07;6.70;;;17.30;1.00;;;;;;5037079;28;20237;-60
2023/07/02 02:26:16;;;;;;;18.00;7.07;;;17.20;99.90;;;;;;5046992;28;20208;-59
2023/07/02 02:28:43;;;;;;;14.47;6.40;;;17.20;1.00;;;;;;5045171;28;20205;-60
2023/07/02 02:31:10;;;;;;;15.83;7.00;;;17.20;1.00;;;;;;5040757;28;20204;-59
2023/07/02 02:33:37;;;;;;;14.07;6.33;;;17.30;1.00;;;;;;5045279;28;20651;-59
2023/07/02 02:36:04;;;;;;;13.07;6.07;;;17.40;1.00;;;;;;5045329;28;20237;-60
2023/07/02 02:38:31;;;;;;;12.37;6.80;;;17.30;1.00;;;;;;5046483;28;20212;-59
2023/07/02 02:40:58;;;;;;;12.17;6.63;;;17.20;1.00;;;;;;5041605;28;20254;-59
2023/07/02 02:43:25;;;;;;;14.30;6.60;;;17.20;1.00;;;;;;5043859;28;20207;-60
2023/07/02 02:45:52;;;;;;;16.87;6.80;;;17.10;1.00;;;;;;5044280;28;20204;-60
2023/07/02 02:48:19;;;;;;;14.30;7.07;;;17.00;1.00;;;;;;5045719;28;20204;-60
2023/07/02 02:50:46;;;;;;;13.27;6.37;;;16.90;1.00;;;;;;5044850;28;20746;-60
2023/07/02 02:53:13;;;;;;;13.80;6.37;;;16.90;1.00;;;;;;5044015;28;20206;-59
2023/07/02 02:55:40;;;;;;;11.43;5.97;;;16.90;1.00;;;;;;5043977;28;20298;-60
2023/07/02 02:58:07;;;;;;;17.93;7.73;;;16.70;1.00;;;;;;5042699;28;20220;-60
2023/07/02 03:00:34;;;;;;;15.87;6.43;;;16.70;1.00;;;;;;5043688;28;20203;-60
2023/07/02 03:03:02;;;;;;;13.37;6.50;;;16.80;12.90;;;;;;5042828;28;20211;-60
2023/07/02 03:05:29;;;;;;;13.73;6.93;;;16.90;1.00;;;;;;5046053;28;20706;-59
2023/07/02 03:07:56;;;;;;;12.47;5.77;;;16.80;1.00;;;;;;5044917;28;20210;-60
2023/07/02 03:10:23;;;;;;;14.90;6.67;;;16.80;1.00;;;;;;5046468;28;20666;-59
2023/07/02 03:12:50;;;;;;;9.43;6.50;;;16.70;80.00;;;;;;5042078;28;20635;-60
2023/07/02 03:15:17;;;;;;;11.83;6.23;;;16.60;90.10;;;;;;5040818;28;20211;-60
2023/07/02 03:17:44;;;;;;;16.10;6.90;;;16.80;1.00;;;;;;5044669;28;20227;-60
2023/07/02 03:20:11;;;;;;;15.53;6.57;;;16.80;1.00;;;;;;5047531;28;20196;-59
2023/07/02 03:22:38;;;;;;;13.60;6.30;;;16.70;13.00;;;;;;5024719;28;20214;-59
2023/07/02 03:25:05;;;;;;;17.53;6.77;;;16.80;1.00;;;;;;5044847;28;20214;-60
2023/07/02 03:27:32;;;;;;;15.17;7.37;;;16.80;1.00;;;;;;5031931;28;20602;-58
2023/07/02 03:29:59;;;;;;;13.70;6.50;;;16.80;1.00;;;;;;5041525;28;20196;-58
2023/07/02 03:32:26;;;;;;;17.93;6.57;;;16.90;1.00;;;;;;5045101;28;20203;-58
2023/07/02 03:34:53;;;;;;;11.50;5.80;;;16.80;1.00;;;;;;5044666;28;20228;-58
2023/07/02 03:37:20;;;;;;;14.20;6.60;;;16.70;1.00;;;;;;5042210;28;20200;-58
2023/07/02 03:39:46;;;;;;;10.90;6.47;;;16.70;1.00;;;;;;5028193;28;20273;-58
2023/07/02 03:42:13;;;;;;;17.03;6.60;;;16.60;1.00;;;;;;5027599;28;20212;-58
2023/07/02 03:44:40;;;;;;;10.10;6.47;;;16.60;1.00;;;;;;5040289;28;20205;-58
2023/07/02 03:47:08;;;;;;;13.97;6.23;;;16.60;1.00;;;;;;5035730;28;20208;-58
2023/07/02 03:49:35;;;;;;;13.70;6.00;;;16.50;1.00;;;;;;5045526;28;20223;-58
2023/07/02 03:52:02;;;;;;;11.67;6.17;;;16.50;1.00;;;;;;5044270;28;20202;-58
2023/07/02 03:54:28;;;;;;;14.63;7.33;;;16.40;1.00;;;;;;5041335;28;20253;-58
2023/07/02 03:56:55;;;;;;;13.27;6.13;;;16.30;1.00;;;;;;5045627;28;20208;-58
2023/07/02 03:59:23;;;;;;;11.07;6.20;;;16.30;1.00;;;;;;5032307;28;20212;-58
2023/07/02 04:01:51;;;;;;;12.57;6.30;;;16.50;1.00;;;;;;5045313;28;20202;-58
2023/07/02 04:04:18;;;;;;;13.23;6.43;;;16.40;1.00;;;;;;5042708;28;20259;-58
2023/07/02 04:06:45;;;;;;;14.80;6.63;;;16.30;99.90;;;;;;5047658;28;20240;-58
2023/07/02 04:09:12;;;;;;;15.63;6.57;;;16.20;1.00;;;;;;5043329;28;20211;-58
2023/07/02 04:11:39;;;;;;;12.50;5.80;;;16.20;99.90;;;;;;5043569;28;20215;-58
2023/07/02 04:14:06;;;;;;;15.57;6.80;;;16.30;1.00;;;;;;5037624;28;20210;-58
2023/07/02 04:16:33;;;;;;;13.30;6.60;;;16.40;99.90;;;;;;5038470;28;20673;-58
2023/07/02 04:19:00;;;;;;;10.27;5.53;;;16.20;99.90;;;;;;5037736;28;20256;-58
2023/07/02 04:21:27;;;;;;;16.17;7.37;;;16.20;1.00;;;;;;5038524;28;20208;-58
2023/07/02 04:23:54;;;;;;;11.07;5.97;;;16.20;99.90;;;;;;5036373;28;20559;-58
2023/07/02 04:26:21;;;;;;;12.27;6.40;;;16.20;99.90;;;;;;5039183;28;20191;-58
2023/07/02 04:29:10;;;;;;;13.13;6.53;;;16.20;1.00;;;;;;5036008;28;20207;-58
2023/07/02 04:31:37;;;;;;;12.63;6.10;;;16.30;1.00;;;;;;5040921;28;20204;-58
2023/07/02 04:34:05;;;;;;;18.33;6.43;;;16.30;99.90;;;;;;5036779;28;20218;-58
2023/07/02 04:36:32;;;;;;;11.20;6.27;;;16.20;99.90;;;;;;5036721;28;20198;-58
2023/07/02 04:38:59;;;;;;;16.10;6.43;;;16.20;99.90;;;;;;5039953;28;20947;-58
2023/07/02 04:41:27;;;;;;;16.73;6.10;;;16.00;99.90;;;;;;5041710;28;20262;-58
2023/07/02 04:43:54;;;;;;;14.83;6.23;;;16.00;99.90;;;;;;5038716;28;20200;-58
2023/07/02 04:46:21;;;;;;;12.40;5.93;;;16.00;99.90;;;;;;5040382;28;20571;-58
2023/07/02 04:48:47;;;;;;;13.60;5.80;;;16.20;99.90;;;;;;5041160;28;20959;-58
2023/07/02 04:51:15;;;;;;;11.67;6.07;;;16.20;99.90;;;;;;5040012;28;20305;-58
2023/07/02 04:53:42;;;;;;;12.07;5.93;;;16.10;99.90;;;;;;5020617;28;20215;-58
2023/07/02 04:56:09;;;;;;;14.93;5.80;;;16.20;99.90;;;;;;5039414;28;20209;-58
2023/07/02 04:58:35;;;;;;;13.30;6.13;;;16.20;99.90;;;;;;5039180;28;20227;-58
2023/07/02 05:01:02;;;;;;;12.33;6.17;;;16.20;99.90;;;;;;5042354;28;20217;-58
2023/07/02 05:03:29;;;;;;;14.67;5.93;;;16.30;99.90;;;;;;5040200;28;20678;-58
2023/07/02 05:05:56;;;;;;;13.43;6.67;;;16.20;99.90;;;;;;5044054;28;20235;-58
2023/07/02 05:08:23;;;;;;;15.10;7.17;;;16.10;1.00;;;;;;5046679;28;20773;-58
2023/07/02 05:10:51;;;;;;;12.83;6.00;;;16.10;99.90;;;;;;5031181;28;20643;-58
2023/07/02 05:13:18;;;;;;;14.83;6.27;;;16.20;99.90;;;;;;5041198;28;20211;-58
2023/07/02 05:15:46;;;;;;;13.33;6.03;;;16.00;99.90;;;;;;5042572;28;20556;-58
2023/07/02 05:18:13;;;;;;;15.13;6.00;;;16.00;1.00;;;;;;5042642;28;20227;-58
2023/07/02 05:20:40;;;;;;;13.63;6.97;;;16.10;1.00;;;;;;5045873;28;20197;-58
2023/07/02 05:23:07;;;;;;;14.77;6.17;;;16.20;1.00;;;;;;5041564;28;20936;-59
2023/07/02 05:25:34;;;;;;;15.90;6.27;;;16.30;99.90;;;;;;5039632;28;20208;-58
2023/07/02 05:28:01;;;;;;;14.30;5.97;;;16.40;99.90;;;;;;5039130;28;20215;-58
2023/07/02 05:30:28;;;;;;;16.87;6.70;;;16.50;99.90;;;;;;5024465;28;20266;-58
2023/07/02 05:32:55;;;;;;;15.67;7.00;;;16.50;99.90;;;;;;5017154;28;20242;-58
2023/07/02 05:35:22;;;;;;;12.17;6.90;;;16.50;99.90;;;;;;5038671;28;20203;-58
2023/07/02 05:37:49;;;;;;;11.10;6.03;;;16.60;99.90;;;;;;5043167;28;20211;-58
2023/07/02 05:40:15;;;;;;;11.83;5.83;;;16.50;99.90;;;;;;5040126;28;20221;-58
2023/07/02 05:42:43;;;;;;;11.60;7.00;;;16.70;99.90;;;;;;5038194;28;20208;-58
2023/07/02 05:45:11;;;;;;;18.33;6.13;;;16.60;99.90;;;;;;5039561;28;20199;-58
2023/07/02 05:47:37;;;;;;;15.17;6.63;;;16.60;99.90;;;;;;5041069;28;20199;-60
2023/07/02 05:50:06;;;;;;;13.90;5.73;;;16.60;99.90;;;;;;5032943;28;20207;-59
2023/07/02 05:52:33;;;;;;;17.30;6.20;;;16.80;99.90;;;;;;5024864;28;20513;-59
2023/07/02 05:55:00;;;;;;;12.83;6.33;;;16.70;99.90;;;;;;5039932;28;22666;-60
2023/07/02 05:57:26;;;;;;;13.60;6.43;;;16.60;99.90;;;;;;5029260;28;20214;-59
2023/07/02 05:59:53;;;;;;;13.97;6.20;;;16.60;99.90;;;;;;5037686;28;20283;-60
2023/07/02 06:02:20;;;;;;;14.50;6.83;;;16.50;99.90;;;;;;5018526;28;20293;-59
2023/07/02 06:04:47;;;;;;;16.77;6.10;;;16.60;99.90;;;;;;5040840;28;20254;-59
2023/07/02 06:07:14;;;;;;;14.57;5.63;;;16.80;99.90;;;;;;5039946;28;20231;-60
2023/07/02 06:09:41;;;;;;;16.40;6.50;;;16.90;99.90;;;;;;5021396;28;20271;-59
2023/07/02 06:12:08;;;;;;;18.17;6.47;;;16.90;99.90;;;;;;5042780;28;21651;-60
2023/07/02 06:14:35;;;;;;;14.60;5.90;;;16.80;91.60;;;;;;5041503;28;20562;-60
2023/07/02 06:17:05;;;;;;;18.30;6.20;;;16.90;92.50;;;;;;5039182;28;20207;-60
2023/07/02 06:19:32;;;;;;;14.30;5.27;;;16.80;1.00;;;;;;5043589;28;20807;-59
2023/07/02 06:22:00;;;;;;;11.17;5.37;;;16.90;1.00;;;;;;4663560;28;10000104;-59
2023/07/02 06:24:27;;;;;;;15.33;4.87;;;16.90;1.00;;;;;;5022443;28;20218;-59
2023/07/02 06:26:53;;;;;;;12.67;5.43;;;16.90;1.00;;;;;;5032347;28;20230;-60
2023/07/02 06:29:23;;;;;;;15.57;5.63;;;17.00;1.00;;;;;;5036850;28;20252;-59
2023/07/02 06:31:51;;;;;;;13.93;5.03;;;17.00;1.00;;;;;;5037650;28;20204;-59
2023/07/02 06:34:17;;;;;;;13.73;4.50;;;17.10;1.00;;;;;;5040050;28;20305;-60
2023/07/02 06:36:44;;;;;;;10.47;4.67;;;17.10;1.00;;;;;;5033405;28;20227;-59
2023/07/02 06:39:11;;;;;;;11.20;4.50;;;17.10;1.00;;;;;;5036014;28;20215;-60
2023/07/02 06:41:38;;;;;;;12.80;5.07;;;17.20;1.00;;;;;;5039820;28;20301;-60
2023/07/02 06:44:05;;;;;;;11.60;4.83;;;17.30;1.00;;;;;;5023034;28;20314;-60
2023/07/02 06:46:32;;;;;;;12.70;5.23;;;17.30;1.00;;;;;;5042904;28;21435;-60
2023/07/02 06:48:59;;;;;;;8.60;4.20;;;17.30;1.00;;;;;;5043624;28;20685;-60
2023/07/02 06:51:27;;;;;;;18.10;5.47;;;17.40;1.00;;;;;;5020469;28;20388;-60
2023/07/02 06:53:54;;;;;;;10.77;4.77;;;17.40;1.00;;;;;;5041744;28;20257;-59
2023/07/02 06:56:20;;;;;;;11.93;5.03;;;17.40;1.00;;;;;;5038839;28;20213;-59
2023/07/02 06:58:47;;;;;;;10.27;4.60;;;17.40;1.00;;;;;;5015080;28;20246;-60
2023/07/02 07:01:14;;;;;;;11.27;5.03;;;17.50;1.00;;;;;;5021613;28;20203;-60
2023/07/02 07:03:41;;;;;;;13.60;5.10;;;17.60;1.00;;;;;;5034403;28;20223;-63
2023/07/02 07:06:08;;;;;;;11.47;5.60;;;17.50;1.00;;;;;;5017956;28;20243;-60
2023/07/02 07:08:38;;;;;;;12.10;4.63;;;17.40;1.00;;;;;;5016501;28;20209;-59
2023/07/02 07:11:05;;;;;;;14.30;4.83;;;17.60;1.00;;;;;;5036316;28;20199;-59
2023/07/02 07:13:32;;;;;;;10.00;4.63;;;17.60;1.00;;;;;;5035124;28;20195;-59
2023/07/02 07:15:59;;;;;;;12.43;5.07;;;17.60;1.00;;;;;;5039499;28;21580;-59
2023/07/02 07:18:26;;;;;;;9.90;4.50;;;17.60;1.00;;;;;;5037602;28;20210;-59
2023/07/02 07:20:56;;;;;;;10.23;4.90;;;17.60;1.00;;;;;;5039184;28;20230;-60
2023/07/02 07:23:23;;;;;;;13.03;5.47;;;17.70;1.00;;;;;;5033024;28;20205;-60
2023/07/02 07:25:50;;;;;;;13.63;5.77;;;17.80;1.00;;;;;;5016148;28;20663;-59
2023/07/02 07:28:17;;;;;;;14.43;5.10;;;17.70;1.00;;;;;;5037915;28;20200;-59
2023/07/02 07:30:44;;;;;;;11.00;5.27;;;17.80;1.00;;;;;;5034258;28;20207;-60
2023/07/02 07:33:11;;;;;;;8.00;4.90;;;17.80;1.00;;;;;;5034489;28;20551;-60
2023/07/02 07:35:38;;;;;;;10.50;4.67;;;17.70;1.00;;;;;;5023476;28;20207;-59
2023/07/02 07:38:05;;;;;;;7.97;4.17;;;17.80;1.00;;;;;;5039556;28;20313;-59
2023/07/02 07:40:32;;;;;;;13.20;4.90;;;17.80;1.00;;;;;;5038284;28;20241;-59
2023/07/02 07:42:59;;;;;;;7.33;3.77;;;18.00;1.00;;;;;;5038030;28;20204;-60
2023/07/02 07:45:26;;;;;;;10.00;4.47;;;17.90;1.00;;;;;;5043514;28;20229;-59
2023/07/02 07:47:53;;;;;;;10.27;4.13;;;17.90;1.00;;;;;;5041268;28;20252;-59
2023/07/02 07:50:20;;;;;;;12.07;4.90;;;17.80;1.00;;;;;;5041909;28;20208;-59
2023/07/02 07:52:48;;;;;;;10.90;4.47;;;17.90;1.00;;;;;;5038356;28;21476;-60
2023/07/02 07:55:15;;;;;;;10.33;4.80;;;18.00;1.00;;;;;;5038432;28;20227;-59
2023/07/02 07:57:42;;;;;;;9.97;4.47;;;18.00;1.00;;;;;;5037343;28;20196;-59
2023/07/02 08:00:12;;;;;;;8.53;4.10;;;18.00;1.00;;;;;;5019692;28;20259;-60
2023/07/02 08:02:38;;;;;;;7.87;4.93;;;18.10;1.00;;;;;;5034818;28;20195;-59
2023/07/02 08:05:06;;;;;;;12.33;4.50;;;18.10;1.00;;;;;;5038454;28;20323;-59
2023/07/02 08:07:33;;;;;;;9.83;4.33;;;18.20;1.00;;;;;;5035463;28;20227;-58
2023/07/02 08:10:02;;;;;;;13.93;4.50;;;18.10;1.00;;;;;;5038300;28;20208;-58
2023/07/02 08:12:31;;;;;;;8.50;4.87;;;18.10;1.00;;;;;;5016476;28;20208;-58
2023/07/02 08:14:58;;;;;;;16.53;4.60;;;18.00;1.00;;;;;;5037182;28;20652;-59
2023/07/02 08:17:25;;;;;;;10.37;4.50;;;18.10;1.00;;;;;;5037608;28;20290;-58
2023/07/02 08:19:52;;;;;;;9.53;4.57;;;18.20;1.00;;;;;;5021695;28;20224;-58
2023/07/02 08:22:19;;;;;;;11.13;4.27;;;18.10;1.00;;;;;;5037643;28;20905;-58
2023/07/02 08:24:49;;;;;;;13.00;4.90;;;18.20;1.00;;;;;;5015357;28;20205;-58
2023/07/02 08:27:19;;;;;;;9.23;3.80;;;18.20;1.00;;;;;;5040055;28;20212;-58
2023/07/02 08:29:47;;;;;;;11.53;4.50;;;18.00;1.00;;;;;;5035682;28;20214;-58
2023/07/02 08:32:15;;;;;;;10.27;4.30;;;17.90;1.00;;;;;;5039477;28;20217;-58
2023/07/02 08:34:42;;;;;;;9.30;4.07;;;17.90;1.00;;;;;;5041260;28;20211;-58
2023/07/02 08:37:09;;;;;;;7.40;3.80;;;17.80;1.00;;;;;;5038672;28;20206;-58
2023/07/02 08:39:39;;;;;;;6.93;3.47;;;17.70;1.00;;;;;;5040040;28;20294;-58
2023/07/02 08:42:07;;;;;;;7.33;3.73;;;17.60;1.00;;;;;;5038967;28;20599;-58
2023/07/02 08:44:35;;;;;;;10.03;4.87;;;18.00;1.00;;;;;;5032879;28;20823;-58
2023/07/02 08:47:02;;;;;;;9.83;4.33;;;18.20;1.00;;;;;;5040989;28;20321;-58
2023/07/02 08:49:29;;;;;;;13.07;4.83;;;18.30;1.00;;;;;;5031955;28;20373;-58
2023/07/02 08:51:56;;;;;;;7.20;4.00;;;18.50;1.00;;;;;;5045801;28;20206;-58
2023/07/02 08:54:23;;;;;;;7.90;3.37;;;18.80;1.00;;;;;;5040460;28;20265;-58
2023/07/02 08:56:50;;;;;;;12.00;4.50;;;18.80;1.00;;;;;;5028577;28;20202;-58
2023/07/02 08:59:16;;;;;;;8.17;4.43;;;18.90;1.00;;;;;;5021743;28;20291;-58
2023/07/02 09:01:51;;;;;;;13.67;4.50;;;18.60;1.00;;;;;;5038277;28;20211;-58
2023/07/02 09:04:23;;;;;;;12.33;4.60;;;18.80;1.00;;;;;;5036286;28;20230;-58
2023/07/02 09:07:09;;;;;;;8.33;4.20;;;18.50;1.00;;;;;;5036115;28;20713;-58
2023/07/02 09:09:47;;;;;;;8.67;4.57;;;18.60;1.00;;;;;;5034303;28;20214;-58
2023/07/02 09:12:27;;;;;;;11.33;4.00;;;18.60;1.00;;;;;;5039115;28;20951;-58
2023/07/02 09:14:59;;;;;;;12.90;4.70;;;18.70;1.00;;;;;;5030787;28;20654;-58
2023/07/02 09:17:34;;;;;;;6.70;3.87;;;19.00;1.00;;;;;;5038107;28;20222;-58
2023/07/02 09:20:08;;;;;;;10.83;4.50;;;18.90;1.00;;;;;;5038503;28;20672;-58
2023/07/02 09:22:36;;;;;;;14.63;5.90;;;19.00;1.00;;;;;;5039031;28;20638;-59
2023/07/02 09:25:04;;;;;;;10.30;4.07;;;18.90;1.00;;;;;;5035603;28;20210;-58
2023/07/02 09:27:39;;;;;;;11.33;4.50;;;18.70;1.00;;;;;;5036406;28;20218;-58
2023/07/02 09:30:08;;;;;;;12.40;4.50;;;19.10;1.00;;;;;;5022192;28;20210;-58
2023/07/02 09:32:35;;;;;;;9.17;3.93;;;19.70;1.00;;;;;;5040019;28;20657;-58
2023/07/02 09:35:04;;;;;;;9.20;4.03;;;19.70;1.00;;;;;;5034397;28;20661;-58
2023/07/02 09:37:32;;;;;;;12.70;4.23;;;19.30;1.00;;;;;;5034253;28;20222;-58
2023/07/02 09:40:00;;;;;;;8.63;4.73;;;19.20;1.00;;;;;;5037295;28;20219;-58
2023/07/02 09:42:28;;;;;;;10.67;4.40;;;19.30;1.00;;;;;;5039692;28;20313;-58
2023/07/02 09:44:56;;;;;;;8.00;4.00;;;19.60;1.00;;;;;;5031900;28;21510;-58
2023/07/02 09:47:25;;;;;;;6.80;3.80;;;19.40;1.00;;;;;;5034813;28;20298;-58
2023/07/02 09:49:56;;;;;;;7.40;4.10;;;19.10;1.00;;;;;;5036373;28;20227;-59
2023/07/02 09:52:23;;;;;;;6.77;4.00;;;19.10;1.00;;;;;;5017678;28;20234;-58
2023/07/02 09:54:50;;;;;;;8.67;5.27;;;19.50;1.00;;;;;;5014219;28;20209;-59
2023/07/02 09:57:17;;;;;;;8.77;4.63;;;19.70;99.90;;;;;;5042203;28;20246;-58
2023/07/02 09:59:44;;;;;;;9.00;4.13;;;19.60;99.90;;;;;;5034115;28;20219;-58
2023/07/02 10:02:13;;;;;;;12.77;4.33;;;19.60;99.90;;;;;;5038322;28;20216;-58
2023/07/02 10:04:54;;;;;;;7.50;3.63;;;19.40;99.90;;;;;;5017974;28;20227;-58
2023/07/02 10:07:30;;;;;;;8.27;4.13;;;19.40;99.90;;;;;;5012278;28;20247;-58
2023/07/02 10:09:57;;;;;;;8.47;3.87;;;19.20;99.90;;;;;;5020371;28;20200;-58
2023/07/02 10:12:28;;;;;;;6.63;3.47;;;19.20;99.90;;;;;;5019079;28;20216;-58
2023/07/02 10:14:58;;;;;;;8.60;3.87;;;19.20;99.90;;;;;;5016925;28;20864;-58
2023/07/02 10:17:30;;;;;;;11.63;4.23;;;19.00;99.90;;;;;;5020222;28;20192;-58
2023/07/02 10:20:00;;;;;;;10.07;4.13;;;19.10;99.90;;;;;;5019217;28;20339;-58
2023/07/02 10:22:27;;;;;;;7.10;4.03;;;19.10;99.90;;;;;;5017429;28;20662;-58
2023/07/02 10:25:00;;;;;;;11.87;5.00;;;19.20;99.90;;;;;;5017847;28;20208;-58
2023/07/02 10:27:39;;;;;;;12.83;5.03;;;19.30;99.90;;;;;;5020412;28;20652;-58
2023/07/02 10:30:07;;;;;;;9.37;4.57;;;19.20;99.90;;;;;;5019974;28;20217;-58
2023/07/02 10:32:35;;;;;;;9.30;4.60;;;19.30;99.90;;;;;;5019449;28;20213;-59
2023/07/02 10:35:12;;;;;;;7.50;4.43;;;19.50;99.90;;;;;;5018663;28;20215;-61
2023/07/02 10:37:39;;;;;;;10.83;4.57;;;19.60;99.90;;;;;;5021249;28;20250;-58
2023/07/02 10:40:08;;;;;;;11.47;4.57;;;19.90;99.90;;;;;;5023191;28;20220;-56
2023/07/02 10:42:46;;;;;;;12.73;4.53;;;20.20;99.90;;;;;;5017823;28;20208;-56
2023/07/02 10:45:13;;;;;;;8.53;4.63;;;19.90;99.90;;;;;;5027989;28;20204;-56
2023/07/02 10:47:41;;;;;;;13.57;5.07;;;20.00;99.90;;;;;;5026744;28;20196;-56
2023/07/02 10:50:19;;;;;;;7.33;4.07;;;19.90;99.90;;;;;;5028418;28;20266;-56
2023/07/02 10:52:47;;;;;;;8.50;3.80;;;20.30;99.90;;;;;;5016046;28;20210;-56
2023/07/02 10:55:22;;;;;;;8.27;4.00;;;20.20;99.90;;;;;;5019309;28;20209;-58
2023/07/02 10:57:52;;;;;;;8.27;4.13;;;20.20;99.90;;;;;;5022984;28;20200;-57
2023/07/02 11:00:20;;;;;;;8.60;4.00;;;20.10;99.90;;;;;;5020241;28;20315;-57
2023/07/02 11:02:46;;;;;;;8.20;4.00;;;20.30;99.90;;;;;;5022250;28;20242;-58
2023/07/02 11:05:14;;;;;;;7.50;4.20;;;20.80;99.90;;;;;;5019964;28;20204;-58
2023/07/02 11:07:42;;;;;;;11.17;4.10;;;20.80;99.90;;;;;;5038312;28;20904;-57
2023/07/02 11:10:11;;;;;;;9.20;3.73;;;20.70;99.90;;;;;;5037162;28;20636;-57
2023/07/02 11:12:38;;;;;;;7.63;3.87;;;21.10;99.90;;;;;;5026847;28;20200;-59
2023/07/02 11:15:17;;;;;;;8.67;3.93;;;21.20;99.90;;;;;;5046028;28;20679;-57
2023/07/02 11:17:44;;;;;;;9.57;3.87;;;21.00;99.90;;;;;;5037834;28;20207;-57
2023/07/02 11:20:13;;;;;;;5.23;2.63;;;20.40;99.90;;;;;;5039088;28;20220;-57
2023/07/02 11:22:41;;;;;;;6.43;3.33;;;19.80;99.90;;;;;;5044854;28;20664;-59
2023/07/02 11:25:17;;;;;;;7.83;3.60;;;19.70;99.90;;;;;;5042938;28;20486;-58
2023/07/02 11:27:44;;;;;;;8.10;3.07;;;19.80;99.90;;;;;;5038713;28;20573;-59
2023/07/02 11:30:12;;;;;;;5.77;3.40;;;20.00;99.90;;;;;;5032059;28;20279;-58
2023/07/02 11:32:53;;;;;;;6.77;3.63;;;20.70;99.90;;;;;;5036064;28;20211;-57
2023/07/02 11:35:22;;;;;;;8.93;3.60;;;21.10;99.90;;;;;;5020652;28;20243;-57
2023/07/02 11:37:49;;;;;;;11.43;3.67;;;21.60;99.90;;;;;;5040865;28;20222;-60
2023/07/02 11:40:19;;;;;;;10.27;3.50;;;22.00;99.90;;;;;;5038669;28;20687;-60
2023/07/02 11:42:47;;;;;;;9.27;3.50;;;21.20;99.90;;;;;;5018623;28;20202;-60
2023/07/02 11:45:13;;;;;;;7.30;3.53;;;21.00;99.90;;;;;;5022132;28;20207;-59
2023/07/02 11:47:40;;;;;;;5.30;3.13;;;20.90;99.90;;;;;;5039077;28;20207;-59
2023/07/02 11:50:08;;;;;;;7.67;3.10;;;21.40;99.90;;;;;;5040437;28;20200;-59
2023/07/02 11:52:52;;;;;;;5.20;2.77;;;21.80;99.90;;;;;;5035284;28;20204;-59
2023/07/02 11:55:18;;;;;;;5.60;2.83;;;21.70;99.90;;;;;;5040311;28;20299;-59
2023/07/02 11:57:46;;;;;;;5.50;2.60;;;21.90;99.90;;;;;;5037935;28;20298;-59
2023/07/02 12:00:14;;;;;;;5.97;2.83;;;21.50;99.90;;;;;;5022902;28;20248;-59
2023/07/02 12:02:41;;;;;;;8.30;3.17;;;21.50;99.90;;;;;;5039091;28;20538;-58
2023/07/02 12:05:08;;;;;;;4.83;2.70;;;21.40;99.90;;;;;;5042854;28;20212;-59
2023/07/02 12:07:39;;;;;;;6.43;2.80;;;21.40;99.90;;;;;;5025854;28;20234;-59
2023/07/02 12:10:07;;;;;;;5.33;2.90;;;21.30;99.90;;;;;;5039295;28;20478;-59
2023/07/02 12:12:34;;;;;;;8.47;3.47;;;21.00;99.90;;;;;;5036141;28;20213;-59
2023/07/02 12:15:02;;;;;;;4.00;2.50;;;20.70;99.90;;;;;;5037635;28;20204;-59
2023/07/02 12:17:29;;;;;;;5.93;3.40;;;21.10;99.90;;;;;;5040346;28;20203;-59
2023/07/02 12:19:57;;;;;;;6.70;2.97;;;21.20;99.90;;;;;;5037668;28;20651;-59
2023/07/02 12:22:24;;;;;;;3.77;2.73;;;20.90;99.90;;;;;;5037191;28;20734;-59
2023/07/02 12:24:53;;;;;;;5.47;2.60;;;21.10;99.90;;;;;;5036421;28;20967;-59
2023/07/02 12:27:20;;;;;;;8.73;3.30;;;21.60;99.90;;;;;;5036217;28;20200;-59
2023/07/02 12:29:48;;;;;;;8.83;3.50;;;21.40;99.90;;;;;;5021520;28;20647;-59
2023/07/02 12:32:15;;;;;;;4.60;3.23;;;21.00;99.90;;;;;;5039186;28;20199;-59
2023/07/02 12:34:42;;;;;;;7.47;3.17;;;21.10;99.90;;;;;;5032319;28;20200;-59
2023/07/02 12:37:09;;;;;;;7.53;3.40;;;20.70;99.90;;;;;;5033140;28;20759;-58
2023/07/02 12:39:36;;;;;;;6.87;2.93;;;21.00;99.90;;;;;;5030607;28;20308;-59
2023/07/02 12:42:03;;;;;;;6.30;2.90;;;21.30;99.90;;;;;;5029753;28;20688;-59
2023/07/02 12:44:30;;;;;;;7.80;3.40;;;21.10;99.90;;;;;;5030626;28;20227;-58
2023/07/02 12:46:56;;;;;;;7.13;2.80;;;21.00;99.90;;;;;;5011821;28;20680;-58